Time;durP1;ratioP1;P1;durP2;ratioP2;P2;SDS_P1;SDS_P2;PMS_P1;PMS_P2;Temp;Humidity;BMP_temperature;BMP_pressure;BME280_temperature;BME280_humidity;BME280_pressure;Samples;Min_cycle;Max_cycle;Signal;HPM_P1;HPM_P2
2024/01/26 00:00:16;;;;;;;30.17;17.17;;;10.20;99.90;;;;;;20676532;28;20041;-39
2024/01/26 00:10:17;;;;;;;31.42;16.75;;;10.30;99.90;;;;;;20661457;28;20730;-39
2024/01/26 00:20:17;;;;;;;25.30;15.20;;;10.30;99.90;;;;;;20677180;28;20421;-39
2024/01/26 00:30:18;;;;;;;23.08;13.77;;;10.30;99.90;;;;;;20675730;28;20038;-39
2024/01/26 00:40:19;;;;;;;20.23;12.57;;;10.30;99.90;;;;;;20673647;28;20376;-40
2024/01/26 00:50:19;;;;;;;17.48;11.70;;;10.20;99.90;;;;;;20674636;28;20034;-39
2024/01/26 01:00:20;;;;;;;16.95;11.07;;;10.30;99.90;;;;;;20673320;28;20069;-39
2024/01/26 01:10:21;;;;;;;14.45;10.32;;;10.40;99.90;;;;;;20666564;28;20033;-39
2024/01/26 01:20:21;;;;;;;15.00;10.25;;;10.30;99.90;;;;;;20672212;28;20495;-39
2024/01/26 01:30:22;;;;;;;16.67;10.60;;;10.40;99.90;;;;;;20669135;28;20487;-39
2024/01/26 01:40:23;;;;;;;18.30;11.47;;;10.30;99.90;;;;;;20669537;28;20488;-39
2024/01/26 01:50:24;;;;;;;16.13;9.95;;;10.40;99.90;;;;;;20673716;28;20030;-39
2024/01/26 02:00:24;;;;;;;14.05;8.70;;;10.40;99.90;;;;;;20666885;28;20461;-39
2024/01/26 02:10:25;;;;;;;11.85;7.57;;;10.40;99.90;;;;;;20665336;28;20064;-40
2024/01/26 02:20:25;;;;;;;12.63;7.97;;;10.40;99.90;;;;;;20666554;28;20292;-39
2024/01/26 02:30:26;;;;;;;11.65;7.50;;;10.50;99.90;;;;;;20669197;28;20042;-39
2024/01/26 02:40:29;;;;;;;9.83;7.33;;;10.60;99.90;;;;;;20668581;28;20581;-39
2024/01/26 02:50:29;;;;;;;14.88;8.65;;;10.60;99.90;;;;;;20668421;28;20402;-39
2024/01/26 03:00:30;;;;;;;16.50;9.03;;;10.70;99.90;;;;;;20658409;28;20050;-39
2024/01/26 03:10:31;;;;;;;13.95;9.35;;;10.80;99.90;;;;;;20662432;28;20449;-40
2024/01/26 03:20:31;;;;;;;14.50;10.68;;;10.90;99.90;;;;;;20659298;28;20046;-39
2024/01/26 03:30:35;;;;;;;15.27;10.73;;;11.10;99.90;;;;;;20679444;28;20038;-40
2024/01/26 03:40:35;;;;;;;17.30;11.45;;;11.20;99.90;;;;;;20679209;28;20034;-40
2024/01/26 03:50:36;;;;;;;17.85;12.45;;;11.20;99.90;;;;;;20674423;28;20525;-40
2024/01/26 04:00:37;;;;;;;19.13;14.40;;;11.20;99.90;;;;;;20675502;28;20050;-40
2024/01/26 04:10:38;;;;;;;19.10;14.20;;;11.30;99.90;;;;;;20675021;28;20057;-39
2024/01/26 04:20:38;;;;;;;24.23;15.30;;;11.40;99.90;;;;;;20672176;28;20038;-40
2024/01/26 04:30:41;;;;;;;21.05;14.65;;;11.50;99.90;;;;;;20667514;28;20069;-39
2024/01/26 04:40:42;;;;;;;20.92;14.85;;;11.50;99.90;;;;;;20670320;28;20038;-40
2024/01/26 04:50:43;;;;;;;22.65;14.57;;;11.60;99.90;;;;;;20668451;28;20030;-40
2024/01/26 05:00:43;;;;;;;21.42;15.05;;;11.50;99.90;;;;;;20672537;28;20472;-40
2024/01/26 05:10:44;;;;;;;22.90;15.80;;;11.40;99.90;;;;;;20667087;28;20351;-39
2024/01/26 05:20:45;;;;;;;25.23;15.82;;;11.30;99.90;;;;;;20665488;28;20038;-39
2024/01/26 05:30:45;;;;;;;24.60;16.03;;;11.20;99.90;;;;;;20661499;28;20088;-39
2024/01/26 05:40:47;;;;;;;25.73;17.07;;;11.10;99.90;;;;;;20668451;28;20093;-40
2024/01/26 05:50:48;;;;;;;26.05;17.73;;;11.10;99.90;;;;;;20672940;28;20034;-39
2024/01/26 06:00:49;;;;;;;24.95;16.58;;;11.10;99.90;;;;;;20669991;28;20046;-39
2024/01/26 06:10:49;;;;;;;21.48;16.20;;;11.10;99.90;;;;;;20666534;28;20784;-40
2024/01/26 06:20:50;;;;;;;23.10;16.20;;;11.00;99.90;;;;;;20662567;28;20212;-40
2024/01/26 06:30:51;;;;;;;23.60;15.90;;;11.10;99.90;;;;;;20664746;28;20045;-40
2024/01/26 06:40:51;;;;;;;18.52;13.73;;;11.00;99.90;;;;;;20664741;28;20044;-40
2024/01/26 06:50:53;;;;;;;18.02;12.13;;;11.10;99.90;;;;;;20666807;28;20031;-40
2024/01/26 07:00:54;;;;;;;16.67;12.05;;;11.30;99.90;;;;;;20673409;28;20061;-40
2024/01/26 07:10:56;;;;;;;17.23;11.57;;;11.40;99.90;;;;;;20679961;28;20037;-40
2024/01/26 07:20:56;;;;;;;17.20;11.68;;;11.40;99.90;;;;;;20681573;28;20034;-40
2024/01/26 07:30:57;;;;;;;15.15;10.98;;;11.50;99.90;;;;;;20675797;28;20041;-40
2024/01/26 07:40:57;;;;;;;15.48;11.40;;;11.40;99.90;;;;;;20679093;28;20395;-40
2024/01/26 07:50:58;;;;;;;16.70;11.93;;;11.40;99.90;;;;;;20678849;28;20034;-39
2024/01/26 08:00:59;;;;;;;17.58;12.25;;;11.40;99.90;;;;;;20674085;28;20045;-39
2024/01/26 08:10:59;;;;;;;14.05;8.95;;;11.60;99.90;;;;;;20675501;28;20057;-40
2024/01/26 08:21:00;;;;;;;17.08;8.07;;;11.60;99.90;;;;;;20671596;28;20045;-39
2024/01/26 08:31:01;;;;;;;14.60;4.35;;;11.70;99.90;;;;;;20674540;28;20042;-39
2024/01/26 08:41:01;;;;;;;11.25;3.35;;;11.70;99.90;;;;;;20668718;28;20073;-41
2024/01/26 08:51:02;;;;;;;8.75;2.38;;;11.50;99.90;;;;;;20676498;28;20057;-39
2024/01/26 09:01:03;;;;;;;14.90;2.35;;;11.20;99.90;;;;;;20672580;28;20538;-39
2024/01/26 09:11:04;;;;;;;11.07;2.13;;;10.80;99.90;;;;;;20684213;28;20430;-41
2024/01/26 09:21:05;;;;;;;8.27;1.05;;;10.40;99.90;;;;;;20675276;28;20501;-40
2024/01/26 09:31:06;;;;;;;5.93;0.80;;;9.70;99.90;;;;;;20677940;28;20494;-40
2024/01/26 09:41:06;;;;;;;6.47;0.95;;;9.20;99.90;;;;;;20673960;28;20038;-39
2024/01/26 09:51:07;;;;;;;12.83;1.30;;;8.90;99.90;;;;;;20672348;28;20058;-40
2024/01/26 10:01:10;;;;;;;7.93;1.30;;;9.00;99.90;;;;;;20677081;28;20445;-40
2024/01/26 10:11:11;;;;;;;13.20;1.30;;;8.90;57.10;;;;;;20694368;28;20038;-41
2024/01/26 10:21:13;;;;;;;14.50;1.40;;;9.00;32.30;;;;;;20676686;28;20441;-39
2024/01/26 10:31:13;;;;;;;12.00;1.30;;;9.20;17.80;;;;;;20674429;28;20074;-39
2024/01/26 10:41:19;;;;;;;11.50;1.52;;;9.30;4.60;;;;;;20681342;28;20037;-40
2024/01/26 10:51:20;;;;;;;8.05;1.63;;;9.40;1.00;;;;;;20682738;28;20049;-41
2024/01/26 11:01:23;;;;;;;15.43;1.67;;;9.60;1.00;;;;;;20689899;28;20034;-40
2024/01/26 11:11:24;;;;;;;18.98;2.25;;;9.80;1.00;;;;;;20679622;28;20046;-40
2024/01/26 11:21:38;;;;;;;12.45;1.85;;;10.00;1.00;;;;;;20680662;28;20030;-40
2024/01/26 11:31:42;;;;;;;14.90;2.20;;;9.90;1.00;;;;;;20664120;28;20429;-39
2024/01/26 11:41:48;;;;;;;20.25;3.35;;;10.20;1.00;;;;;;20685213;28;20462;-39
2024/01/26 11:51:48;;;;;;;17.60;2.20;;;10.30;1.00;;;;;;20685206;28;20402;-39
2024/01/26 12:01:49;;;;;;;17.38;2.08;;;10.40;1.00;;;;;;20680180;28;20406;-38
2024/01/26 12:11:50;;;;;;;14.33;1.93;;;10.50;1.00;;;;;;20677726;28;20026;-39
2024/01/26 12:21:51;;;;;;;14.20;1.77;;;10.20;1.00;;;;;;20678587;28;20457;-41
2024/01/26 12:31:51;;;;;;;13.53;1.70;;;10.40;1.00;;;;;;20680176;28;20506;-40
2024/01/26 12:41:55;;;;;;;14.85;2.33;;;10.50;1.00;;;;;;20676491;28;20048;-40
2024/01/26 12:51:58;;;;;;;15.82;2.05;;;10.40;1.00;;;;;;20679511;28;20584;-41
2024/01/26 13:01:58;;;;;;;17.98;2.78;;;10.40;1.00;;;;;;20674347;28;20042;-40
2024/01/26 13:12:02;;;;;;;18.90;2.70;;;9.90;1.00;;;;;;20678683;28;20482;-40
2024/01/26 13:22:03;;;;;;;13.98;2.05;;;9.50;1.00;;;;;;20675566;28;20053;-40
2024/01/26 13:32:05;;;;;;;21.45;2.58;;;9.40;1.00;;;;;;20673290;28;20038;-40
2024/01/26 13:42:06;;;;;;;13.80;2.33;;;9.30;1.00;;;;;;20675603;28;20042;-40
2024/01/26 13:52:07;;;;;;;14.85;2.55;;;9.20;1.00;;;;;;20676752;28;20052;-39
2024/01/26 14:02:07;;;;;;;19.48;2.35;;;9.20;1.00;;;;;;20674535;28;20042;-39
2024/01/26 14:12:08;;;;;;;13.77;1.92;;;9.10;1.00;;;;;;20673871;28;20413;-39
2024/01/26 14:22:09;;;;;;;13.57;1.83;;;9.10;1.00;;;;;;20670107;28;20038;-41
2024/01/26 14:32:10;;;;;;;18.33;2.50;;;9.10;1.00;;;;;;20676869;28;20497;-39
2024/01/26 14:42:11;;;;;;;20.23;2.78;;;9.10;1.00;;;;;;20666747;28;20462;-39
2024/01/26 14:52:12;;;;;;;14.80;2.40;;;9.20;1.00;;;;;;20671326;28;20084;-39
2024/01/26 15:02:13;;;;;;;14.93;2.20;;;9.30;1.00;;;;;;20672734;28;20038;-40
2024/01/26 15:12:13;;;;;;;12.73;2.03;;;9.50;1.00;;;;;;20670518;28;20034;-40
2024/01/26 15:22:14;;;;;;;12.48;2.13;;;9.20;1.00;;;;;;20673019;28;20309;-40
2024/01/26 15:32:15;;;;;;;14.52;1.80;;;8.90;1.00;;;;;;20685132;28;20466;-40
2024/01/26 15:42:16;;;;;;;13.82;3.00;;;8.70;1.00;;;;;;20684499;28;20095;-40
2024/01/26 15:52:16;;;;;;;16.42;2.70;;;8.50;1.00;;;;;;20682088;28;20065;-40
2024/01/26 16:02:17;;;;;;;15.50;1.90;;;8.30;1.00;;;;;;20680745;28;20108;-40
2024/01/26 16:12:17;;;;;;;18.20;2.40;;;8.10;1.00;;;;;;20678333;28;20449;-40
2024/01/26 16:22:18;;;;;;;18.25;3.47;;;7.90;1.00;;;;;;20676982;28;20053;-40
2024/01/26 16:32:19;;;;;;;16.65;3.10;;;7.70;1.00;;;;;;20678359;28;20120;-40
2024/01/26 16:42:20;;;;;;;15.10;2.47;;;7.80;1.00;;;;;;20679394;28;20088;-41
2024/01/26 16:52:23;;;;;;;22.30;3.33;;;7.50;1.00;;;;;;20675221;28;20491;-40
2024/01/26 17:02:24;;;;;;;20.00;3.10;;;7.50;1.00;;;;;;20670262;28;20041;-40
2024/01/26 17:12:25;;;;;;;18.70;3.17;;;7.40;1.00;;;;;;20672427;28;20088;-40
2024/01/26 17:22:25;;;;;;;16.60;4.05;;;7.40;1.00;;;;;;20680659;28;20121;-39
2024/01/26 17:32:26;;;;;;;20.13;4.03;;;7.20;1.00;;;;;;20673518;28;20041;-40
2024/01/26 17:42:27;;;;;;;15.07;3.15;;;7.10;1.00;;;;;;20681767;28;20450;-39
2024/01/26 17:52:31;;;;;;;19.20;3.60;;;6.90;1.00;;;;;;20675596;28;20413;-39
2024/01/26 18:02:33;;;;;;;18.85;3.85;;;6.70;1.00;;;;;;20671620;28;20034;-40
2024/01/26 18:12:34;;;;;;;16.02;2.90;;;6.40;1.00;;;;;;20673543;28;20049;-39
2024/01/26 18:22:37;;;;;;;15.07;2.92;;;6.20;1.00;;;;;;20675853;28;20043;-39
2024/01/26 18:32:38;;;;;;;11.13;2.20;;;6.50;1.00;;;;;;20677726;28;20102;-39
2024/01/26 18:42:38;;;;;;;17.98;3.15;;;6.30;1.00;;;;;;20671407;28;20046;-39
2024/01/26 18:52:39;;;;;;;18.70;3.72;;;6.20;1.00;;;;;;20670272;28;20030;-39
2024/01/26 19:02:40;;;;;;;17.35;3.75;;;6.00;1.00;;;;;;20691574;28;20030;-39
2024/01/26 19:12:41;;;;;;;17.83;5.40;;;5.70;1.00;;;;;;20691526;28;20057;-39
2024/01/26 19:22:41;;;;;;;14.18;4.00;;;5.60;1.00;;;;;;20689318;28;20037;-39
2024/01/26 19:32:43;;;;;;;23.73;6.17;;;5.30;1.00;;;;;;20688351;28;20041;-39
2024/01/26 19:42:43;;;;;;;11.55;3.47;;;5.00;1.00;;;;;;20684069;28;20496;-39
2024/01/26 19:52:44;;;;;;;10.95;3.90;;;4.90;1.70;;;;;;20692120;28;20546;-40
2024/01/26 20:02:45;;;;;;;16.23;4.43;;;4.90;3.70;;;;;;20692354;28;20042;-39
2024/01/26 20:12:45;;;;;;;9.63;2.70;;;4.80;6.70;;;;;;20694004;28;20033;-40
2024/01/26 20:22:46;;;;;;;11.83;2.60;;;4.70;11.00;;;;;;20688332;28;20043;-40
2024/01/26 20:32:47;;;;;;;11.90;3.08;;;4.70;16.20;;;;;;20690280;28;20048;-39
2024/01/26 20:42:48;;;;;;;17.35;4.75;;;4.90;17.60;;;;;;20688954;28;20557;-39
2024/01/26 20:52:49;;;;;;;14.85;5.35;;;5.00;18.80;;;;;;20683363;28;20085;-39
2024/01/26 21:02:50;;;;;;;14.80;3.77;;;4.90;18.70;;;;;;20683508;28;20043;-40
2024/01/26 21:12:51;;;;;;;14.13;3.90;;;4.80;21.50;;;;;;20683153;28;20042;-39
2024/01/26 21:22:52;;;;;;;13.75;3.38;;;4.70;18.90;;;;;;20682184;28;20038;-39
2024/01/26 21:32:52;;;;;;;12.52;3.70;;;4.70;20.10;;;;;;20672309;28;20036;-39
2024/01/26 21:42:53;;;;;;;15.20;3.80;;;4.60;23.70;;;;;;20681985;28;20046;-40
2024/01/26 21:52:54;;;;;;;16.23;4.78;;;4.40;29.20;;;;;;20684569;28;20104;-40
2024/01/26 22:02:54;;;;;;;13.13;4.20;;;4.30;29.10;;;;;;20681140;28;20045;-39
2024/01/26 22:12:55;;;;;;;18.47;3.57;;;4.30;36.70;;;;;;20685561;28;20494;-40
2024/01/26 22:22:56;;;;;;;13.70;3.03;;;4.30;35.70;;;;;;20678492;28;20544;-39
2024/01/26 22:32:56;;;;;;;9.50;3.17;;;4.40;37.00;;;;;;20690219;28;20030;-39
2024/01/26 22:43:01;;;;;;;13.35;3.45;;;4.60;36.00;;;;;;20695164;28;20414;-40
2024/01/26 22:53:02;;;;;;;15.60;3.70;;;4.50;30.00;;;;;;20694660;28;20227;-40
2024/01/26 23:03:03;;;;;;;20.55;3.70;;;4.40;28.20;;;;;;20703008;28;20045;-43
2024/01/26 23:13:04;;;;;;;10.07;3.67;;;4.30;30.50;;;;;;20693206;28;20040;-39
2024/01/26 23:23:04;;;;;;;13.18;3.65;;;4.40;36.10;;;;;;20686724;28;20039;-40
2024/01/26 23:33:05;;;;;;;17.73;4.00;;;4.30;37.90;;;;;;20690390;28;20533;-39
2024/01/26 23:43:06;;;;;;;16.00;3.55;;;4.40;30.90;;;;;;20690125;28;20053;-39
2024/01/26 23:53:07;;;;;;;13.13;2.97;;;4.30;30.30;;;;;;20694399;28;20091;-40
